Time;durP1;ratioP1;P1;durP2;ratioP2;P2;SDS_P1;SDS_P2;PMS_P1;PMS_P2;Temp;Humidity;BMP_temperature;BMP_pressure;BME280_temperature;BME280_humidity;BME280_pressure;Samples;Min_cycle;Max_cycle;Signal;HPM_P1;HPM_P2
2021/12/01 00:02:25;;;;;;;35.72;12.32;;;10.00;99.90;;;;;;5092087;28;20083;-81
2021/12/01 00:04:51;;;;;;;25.38;11.43;;;10.00;99.90;;;;;;5092695;28;20063;-80
2021/12/01 00:07:17;;;;;;;27.75;11.88;;;10.00;99.90;;;;;;5092937;28;20190;-80
2021/12/01 00:09:43;;;;;;;23.77;11.65;;;10.00;99.90;;;;;;5092932;28;20403;-80
2021/12/01 00:12:09;;;;;;;43.72;13.55;;;10.00;99.90;;;;;;5075837;28;20044;-80
2021/12/01 00:14:35;;;;;;;25.17;11.95;;;10.00;99.90;;;;;;5092655;28;20044;-80
2021/12/01 00:17:01;;;;;;;23.05;11.43;;;10.00;99.90;;;;;;5092515;28;20044;-81
2021/12/01 00:19:29;;;;;;;37.90;14.35;;;10.00;99.90;;;;;;5092858;28;20395;-80
2021/12/01 00:21:55;;;;;;;91.55;18.17;;;10.10;99.90;;;;;;5075795;28;20040;-81
2021/12/01 00:24:21;;;;;;;60.70;18.08;;;10.20;99.90;;;;;;5092713;28;20094;-80
2021/12/01 00:26:47;;;;;;;41.83;16.13;;;10.10;99.90;;;;;;5092427;28;20080;-80
2021/12/01 00:29:13;;;;;;;29.40;15.48;;;10.20;99.90;;;;;;5075804;28;20048;-81
2021/12/01 00:31:38;;;;;;;46.13;18.70;;;10.20;99.90;;;;;;5092369;28;20121;-81
2021/12/01 00:34:04;;;;;;;77.65;24.17;;;10.30;99.90;;;;;;5075043;28;20036;-81
2021/12/01 00:36:30;;;;;;;52.70;22.23;;;10.30;99.90;;;;;;5092642;28;20063;-81
2021/12/01 00:38:56;;;;;;;75.70;24.13;;;10.20;99.90;;;;;;5075573;28;20142;-81
2021/12/01 00:41:23;;;;;;;80.50;27.38;;;10.40;99.90;;;;;;5076133;28;20086;-81
2021/12/01 00:43:50;;;;;;;62.25;25.27;;;10.40;99.90;;;;;;5079875;28;20058;-81
2021/12/01 00:46:23;;;;;;;55.63;24.88;;;10.30;99.90;;;;;;5079446;28;20131;-81
2021/12/01 00:48:49;;;;;;;112.68;32.53;;;10.30;99.90;;;;;;5096639;28;20052;-81
2021/12/01 00:51:16;;;;;;;73.03;29.38;;;10.40;99.90;;;;;;5096480;28;20105;-81
2021/12/01 00:53:42;;;;;;;117.80;34.40;;;10.40;99.90;;;;;;5096375;28;20131;-81
2021/12/01 00:56:09;;;;;;;58.15;26.60;;;10.50;99.90;;;;;;5079302;28;20479;-81
2021/12/01 00:58:35;;;;;;;97.38;30.30;;;10.50;99.90;;;;;;5096132;28;20505;-81
2021/12/01 01:01:02;;;;;;;114.72;35.42;;;10.50;99.90;;;;;;5079028;28;20047;-81
2021/12/01 01:03:28;;;;;;;95.80;34.47;;;10.60;99.90;;;;;;5096093;28;20079;-81
2021/12/01 01:05:54;;;;;;;65.57;28.20;;;10.60;99.90;;;;;;5095916;28;20395;-81
2021/12/01 01:08:20;;;;;;;91.05;33.63;;;10.50;99.90;;;;;;5096247;28;20044;-81
2021/12/01 01:11:08;;;;;;;87.70;32.00;;;10.40;99.90;;;;;;5079104;28;20044;-81
2021/12/01 01:16:25;;;;;;;85.88;32.20;;;10.50;99.90;;;;;;5096565;28;20047;-81
2021/12/01 01:18:55;;;;;;;98.30;33.10;;;10.50;99.90;;;;;;5096141;28;20185;-81
2021/12/01 01:21:23;;;;;;;74.93;30.17;;;10.40;99.90;;;;;;5095856;28;20051;-81
2021/12/01 01:23:49;;;;;;;75.53;29.70;;;10.40;99.90;;;;;;5095914;28;20052;-81
2021/12/01 01:26:18;;;;;;;77.68;31.05;;;10.40;99.90;;;;;;5078998;28;20044;-81
2021/12/01 01:28:44;;;;;;;80.35;30.35;;;10.40;99.90;;;;;;5095545;28;20123;-81
2021/12/01 01:31:11;;;;;;;75.78;30.38;;;10.40;99.90;;;;;;5095413;28;20043;-81
2021/12/01 01:33:37;;;;;;;71.75;28.45;;;10.40;99.90;;;;;;5094960;28;20054;-81
2021/12/01 01:36:03;;;;;;;67.25;26.75;;;10.40;99.90;;;;;;5095646;28;20048;-81
2021/12/01 01:38:31;;;;;;;65.70;29.85;;;10.30;99.90;;;;;;5078711;28;20040;-81
2021/12/01 01:40:58;;;;;;;62.80;26.00;;;10.40;99.90;;;;;;5078381;28;20051;-81
2021/12/01 01:43:25;;;;;;;74.95;29.63;;;10.50;99.90;;;;;;5078558;28;20054;-81
2021/12/01 01:45:53;;;;;;;59.10;25.33;;;10.40;99.90;;;;;;5062288;28;20058;-81
2021/12/01 01:48:22;;;;;;;53.75;21.58;;;10.40;99.90;;;;;;5095634;28;20391;-81
2021/12/01 01:50:48;;;;;;;47.33;21.20;;;10.40;99.90;;;;;;5095102;28;20036;-81
2021/12/01 01:53:23;;;;;;;60.55;24.17;;;10.40;99.90;;;;;;5094795;28;20112;-81
2021/12/01 01:55:52;;;;;;;58.53;23.13;;;10.50;99.90;;;;;;5095867;28;20459;-81
2021/12/01 01:58:18;;;;;;;46.55;18.58;;;10.40;99.90;;;;;;5095220;28;20449;-81
2021/12/01 02:01:08;;;;;;;37.13;17.65;;;10.40;99.90;;;;;;5095443;28;20048;-81
2021/12/01 02:03:53;;;;;;;32.08;16.67;;;10.40;99.90;;;;;;5094241;28;20109;-81
2021/12/01 02:06:23;;;;;;;41.17;16.53;;;10.40;99.90;;;;;;5094222;28;20437;-81
2021/12/01 02:08:51;;;;;;;29.73;13.80;;;10.40;99.90;;;;;;5078139;28;20462;-81
2021/12/01 02:11:18;;;;;;;28.00;12.18;;;10.40;99.90;;;;;;5078085;28;20480;-81
2021/12/01 02:13:44;;;;;;;30.65;12.13;;;10.40;99.90;;;;;;5094765;28;20051;-81
2021/12/01 02:16:11;;;;;;;29.15;9.82;;;10.40;99.90;;;;;;5094624;28;20051;-81
2021/12/01 02:18:39;;;;;;;23.75;9.45;;;10.40;99.90;;;;;;5094752;28;20054;-81
2021/12/01 02:21:13;;;;;;;18.08;6.90;;;10.40;99.90;;;;;;5094781;28;20048;-81
2021/12/01 02:23:47;;;;;;;23.92;6.35;;;10.40;99.90;;;;;;5077688;28;20055;-81
2021/12/01 02:26:15;;;;;;;15.57;6.30;;;10.40;99.90;;;;;;5094724;28;20059;-81
2021/12/01 02:28:44;;;;;;;16.75;4.88;;;10.40;99.90;;;;;;5094594;28;20561;-81
2021/12/01 02:31:10;;;;;;;24.02;5.05;;;10.40;99.90;;;;;;5077876;28;20048;-82
2021/12/01 02:33:36;;;;;;;14.75;4.18;;;10.40;99.90;;;;;;5093821;28;20047;-81
2021/12/01 02:36:02;;;;;;;15.23;4.60;;;10.30;99.90;;;;;;5094304;28;20089;-81
2021/12/01 02:38:28;;;;;;;15.00;3.65;;;10.40;99.90;;;;;;5077527;28;20372;-81
2021/12/01 02:40:54;;;;;;;17.35;4.45;;;10.40;99.90;;;;;;5093979;28;20080;-81
2021/12/01 02:43:23;;;;;;;7.43;2.65;;;10.40;99.90;;;;;;5094636;28;20131;-81
2021/12/01 02:45:52;;;;;;;7.10;2.28;;;10.40;99.90;;;;;;5094493;28;20047;-81
2021/12/01 02:48:18;;;;;;;9.43;3.33;;;10.40;99.90;;;;;;5094452;28;20036;-81
2021/12/01 02:50:43;;;;;;;6.97;2.85;;;10.50;99.90;;;;;;5093983;28;20048;-81
2021/12/01 02:53:10;;;;;;;9.98;2.67;;;10.50;99.90;;;;;;5077299;28;20143;-81
2021/12/01 02:55:58;;;;;;;5.75;2.35;;;10.50;99.90;;;;;;5093786;28;20108;-81
2021/12/01 02:58:26;;;;;;;5.32;2.28;;;10.60;99.90;;;;;;5094157;28;20048;-81
2021/12/01 03:00:55;;;;;;;6.30;2.15;;;10.50;99.90;;;;;;5094084;28;20044;-81
2021/12/01 03:03:22;;;;;;;7.65;1.90;;;10.50;99.90;;;;;;5093331;28;20097;-82
2021/12/01 03:05:49;;;;;;;8.20;1.92;;;10.50;99.90;;;;;;5092897;28;20056;-81
2021/12/01 03:08:16;;;;;;;6.80;1.63;;;10.60;99.90;;;;;;5093603;28;20109;-81
2021/12/01 03:10:47;;;;;;;5.60;2.20;;;10.50;99.90;;;;;;5077163;28;20040;-81
2021/12/01 03:13:15;;;;;;;5.13;2.05;;;10.50;99.90;;;;;;5093929;28;20052;-81
2021/12/01 03:15:41;;;;;;;5.90;1.98;;;10.60;99.90;;;;;;5093574;28;20554;-81
2021/12/01 03:18:07;;;;;;;9.95;2.05;;;10.60;99.90;;;;;;5093833;28;20487;-82
2021/12/01 03:20:33;;;;;;;6.85;1.90;;;10.60;99.90;;;;;;5059880;28;20135;-81
2021/12/01 03:22:59;;;;;;;3.05;1.60;;;10.60;99.90;;;;;;5093717;28;20051;-81
2021/12/01 03:25:27;;;;;;;6.60;2.38;;;10.60;99.90;;;;;;5076533;28;20365;-81
2021/12/01 03:27:53;;;;;;;6.68;1.60;;;10.60;99.90;;;;;;5076836;28;20047;-81
2021/12/01 03:30:22;;;;;;;9.35;1.95;;;10.60;99.90;;;;;;5093198;28;20113;-81
2021/12/01 03:32:48;;;;;;;12.27;2.50;;;10.60;99.90;;;;;;5092911;28;20044;-81
2021/12/01 03:35:15;;;;;;;13.63;2.30;;;10.60;99.90;;;;;;5093008;28;20403;-81
2021/12/01 03:37:43;;;;;;;9.77;2.00;;;10.50;99.90;;;;;;5093318;28;20101;-81
2021/12/01 03:40:10;;;;;;;14.65;2.13;;;10.50;99.90;;;;;;5093472;28;20395;-81
2021/12/01 03:42:36;;;;;;;15.57;1.73;;;10.50;99.90;;;;;;5093127;28;20051;-81
2021/12/01 03:45:02;;;;;;;9.07;1.88;;;10.40;99.90;;;;;;5076294;28;20048;-81
2021/12/01 03:47:28;;;;;;;8.52;2.10;;;10.40;99.90;;;;;;5092984;28;20070;-81
2021/12/01 03:49:54;;;;;;;14.35;1.80;;;10.50;99.90;;;;;;5092934;28;20064;-81
2021/12/01 03:52:21;;;;;;;7.82;1.73;;;10.50;99.90;;;;;;5093155;28;20130;-81
2021/12/01 03:54:47;;;;;;;27.27;2.60;;;10.50;99.90;;;;;;5092756;28;20044;-81
2021/12/01 03:57:15;;;;;;;15.30;2.58;;;10.50;99.90;;;;;;5093193;28;20067;-81
2021/12/01 03:59:41;;;;;;;17.25;2.80;;;10.50;99.90;;;;;;5093032;28;20463;-81
2021/12/01 04:02:07;;;;;;;31.00;3.10;;;10.50;99.90;;;;;;5076198;28;20048;-81
2021/12/01 04:04:33;;;;;;;26.13;2.72;;;10.50;99.90;;;;;;5091908;28;20093;-81
2021/12/01 04:06:59;;;;;;;24.98;3.40;;;10.60;99.90;;;;;;5093483;28;20051;-81
2021/12/01 04:09:26;;;;;;;25.88;2.97;;;10.60;99.90;;;;;;5075968;28;20092;-81
2021/12/01 04:11:52;;;;;;;18.95;3.13;;;10.50;99.90;;;;;;5092894;28;20376;-81
2021/12/01 04:14:17;;;;;;;28.08;4.07;;;10.40;99.90;;;;;;5075799;28;20040;-81
2021/12/01 04:16:44;;;;;;;23.08;3.00;;;10.50;99.90;;;;;;5092637;28;20088;-81
2021/12/01 04:19:10;;;;;;;28.35;3.63;;;10.40;99.90;;;;;;5092796;28;20130;-81
2021/12/01 04:21:36;;;;;;;22.30;3.55;;;10.40;99.90;;;;;;5092402;28;20483;-81
2021/12/01 04:24:02;;;;;;;19.35;3.05;;;10.50;99.90;;;;;;5092839;28;20040;-81
2021/12/01 04:26:31;;;;;;;17.00;3.70;;;10.50;99.90;;;;;;5092302;28;20113;-81
2021/12/01 04:28:57;;;;;;;17.70;4.05;;;10.60;99.90;;;;;;5092138;28;20491;-81
2021/12/01 04:31:24;;;;;;;15.57;2.90;;;10.50;99.90;;;;;;5092335;28;20040;-81
2021/12/01 04:33:50;;;;;;;14.10;2.78;;;10.60;99.90;;;;;;5092029;28;20086;-81
2021/12/01 04:36:20;;;;;;;15.32;3.40;;;10.50;99.90;;;;;;5093143;28;20079;-81
2021/12/01 04:38:45;;;;;;;11.55;2.55;;;10.50;99.90;;;;;;5092723;28;20054;-81
2021/12/01 04:41:13;;;;;;;12.10;2.92;;;10.50;99.90;;;;;;5075889;28;20466;-82
2021/12/01 04:43:40;;;;;;;11.20;3.15;;;10.40;99.90;;;;;;5092231;28;20044;-82
2021/12/01 04:46:07;;;;;;;10.68;3.60;;;10.40;99.90;;;;;;5075513;28;20055;-81
2021/12/01 04:48:32;;;;;;;5.55;2.70;;;10.40;99.90;;;;;;5092181;28;20040;-81
2021/12/01 04:51:00;;;;;;;8.63;3.50;;;10.40;99.90;;;;;;5075600;28;20063;-81
2021/12/01 04:53:26;;;;;;;13.25;3.60;;;10.50;99.90;;;;;;5092220;28;20483;-81
2021/12/01 04:55:53;;;;;;;8.85;4.00;;;10.40;99.90;;;;;;5092365;28;20059;-82
2021/12/01 04:58:20;;;;;;;8.95;4.05;;;10.50;99.90;;;;;;5092392;28;20104;-82
2021/12/01 05:00:46;;;;;;;7.07;4.32;;;10.50;99.90;;;;;;5092024;28;20044;-82
2021/12/01 05:03:12;;;;;;;10.52;4.70;;;10.50;99.90;;;;;;5075236;28;20059;-82
2021/12/01 05:05:38;;;;;;;8.25;4.57;;;10.50;99.90;;;;;;5091678;28;20048;-82
2021/12/01 05:08:04;;;;;;;14.63;5.10;;;10.50;99.90;;;;;;5075313;28;20109;-82
2021/12/01 05:10:30;;;;;;;13.07;5.50;;;10.40;99.90;;;;;;5092334;28;20043;-82
2021/12/01 05:12:56;;;;;;;8.68;3.85;;;10.40;99.90;;;;;;5091990;28;20152;-82
2021/12/01 05:15:21;;;;;;;8.65;4.03;;;10.30;99.90;;;;;;5075106;28;20222;-82
2021/12/01 05:17:47;;;;;;;7.15;2.75;;;10.30;99.90;;;;;;5058542;28;20052;-82
2021/12/01 05:20:13;;;;;;;4.95;2.38;;;10.20;99.90;;;;;;5092297;28;20044;-82
2021/12/01 05:22:39;;;;;;;3.38;2.10;;;10.20;99.90;;;;;;5075338;28;20522;-82
2021/12/01 05:25:05;;;;;;;5.13;2.67;;;10.20;99.90;;;;;;5075443;28;20047;-82
2021/12/01 05:27:31;;;;;;;5.00;2.30;;;10.30;99.90;;;;;;5075841;28;20048;-81
2021/12/01 05:29:57;;;;;;;4.20;2.00;;;10.20;99.90;;;;;;5095714;28;20097;-82
2021/12/01 05:32:23;;;;;;;4.10;2.15;;;10.10;99.90;;;;;;5078719;28;20052;-82
2021/12/01 05:34:49;;;;;;;4.45;2.05;;;10.10;99.90;;;;;;5061952;28;20040;-81
2021/12/01 05:37:14;;;;;;;4.60;1.98;;;10.20;99.90;;;;;;5095691;28;20090;-81
2021/12/01 05:39:44;;;;;;;5.88;2.20;;;10.20;99.90;;;;;;5061896;28;20055;-82
2021/12/01 05:42:13;;;;;;;6.25;2.50;;;10.20;99.90;;;;;;5079332;28;20116;-81
2021/12/01 05:44:40;;;;;;;4.95;2.65;;;10.10;99.90;;;;;;5078438;28;20044;-82
2021/12/01 05:47:06;;;;;;;3.42;2.25;;;10.20;99.90;;;;;;5095569;28;20483;-82
2021/12/01 05:49:32;;;;;;;5.60;2.28;;;10.10;99.90;;;;;;5095134;28;20118;-81
2021/12/01 05:51:59;;;;;;;3.60;2.10;;;10.00;99.90;;;;;;5078161;28;20087;-81
2021/12/01 05:54:26;;;;;;;5.25;2.95;;;10.00;99.90;;;;;;5094810;28;20040;-81
2021/12/01 05:56:52;;;;;;;4.32;2.80;;;9.90;99.90;;;;;;5061596;28;20098;-81
2021/12/01 05:59:17;;;;;;;5.70;2.65;;;9.90;99.90;;;;;;5078509;28;20519;-81
2021/12/01 06:01:43;;;;;;;6.90;2.35;;;9.90;99.90;;;;;;5095178;28;20074;-81
2021/12/01 06:04:09;;;;;;;3.60;2.42;;;9.90;99.90;;;;;;5077992;28;20135;-82
2021/12/01 06:06:35;;;;;;;5.07;2.65;;;9.90;99.90;;;;;;5060994;28;20399;-81
2021/12/01 06:09:00;;;;;;;8.05;3.88;;;9.90;99.90;;;;;;5095157;28;20056;-82
2021/12/01 06:11:26;;;;;;;5.00;2.85;;;9.90;99.90;;;;;;5078252;28;20070;-82
2021/12/01 06:13:53;;;;;;;6.18;2.90;;;9.80;99.90;;;;;;5095105;28;20040;-82
2021/12/01 06:16:21;;;;;;;5.13;3.00;;;9.80;99.90;;;;;;5095100;28;20127;-81
2021/12/01 06:18:47;;;;;;;5.70;3.40;;;9.80;99.90;;;;;;5094740;28;20620;-81
2021/12/01 06:21:13;;;;;;;5.45;3.30;;;9.80;99.90;;;;;;5094859;28;20135;-82
2021/12/01 06:23:39;;;;;;;5.97;3.58;;;9.80;99.90;;;;;;5094708;28;20391;-81
2021/12/01 06:26:04;;;;;;;8.50;3.58;;;9.80;99.90;;;;;;5077445;28;20135;-82
2021/12/01 06:28:30;;;;;;;5.22;2.83;;;9.80;99.90;;;;;;5094688;28;20048;-81
2021/12/01 06:30:56;;;;;;;5.15;2.65;;;9.80;99.90;;;;;;5094552;28;20054;-82
2021/12/01 06:33:21;;;;;;;5.43;3.60;;;9.70;99.90;;;;;;5077192;28;20040;-81
2021/12/01 06:35:49;;;;;;;4.53;3.35;;;9.80;99.90;;;;;;5094835;28;20136;-81
2021/12/01 06:38:16;;;;;;;5.13;3.50;;;9.80;99.90;;;;;;5094390;28;20487;-82
2021/12/01 06:40:42;;;;;;;5.20;3.60;;;9.70;99.90;;;;;;5093049;28;20093;-82
2021/12/01 06:43:08;;;;;;;5.95;3.53;;;9.70;99.90;;;;;;5094665;28;20044;-81
2021/12/01 06:45:33;;;;;;;6.22;3.83;;;9.60;99.90;;;;;;5094321;28;20040;-82
2021/12/01 06:47:59;;;;;;;4.00;3.15;;;9.70;99.90;;;;;;5077639;28;20040;-82
2021/12/01 06:50:25;;;;;;;4.72;3.13;;;9.70;99.90;;;;;;5077300;28;20082;-82
2021/12/01 06:52:51;;;;;;;5.55;3.72;;;9.70;99.90;;;;;;5094208;28;20044;-82
2021/12/01 06:55:16;;;;;;;5.10;2.75;;;9.80;99.90;;;;;;5093620;28;20059;-82
2021/12/01 06:57:42;;;;;;;5.57;3.42;;;9.80;99.90;;;;;;5094020;28;20054;-82
2021/12/01 07:00:11;;;;;;;5.30;2.97;;;9.70;99.90;;;;;;5094450;28;20055;-83
2021/12/01 07:02:37;;;;;;;5.70;3.33;;;9.70;99.90;;;;;;5093425;28;20044;-82
2021/12/01 07:05:03;;;;;;;5.15;3.10;;;9.70;99.90;;;;;;5093751;28;20056;-82
2021/12/01 07:07:29;;;;;;;5.72;3.33;;;9.70;99.90;;;;;;5093778;28;20052;-82
2021/12/01 07:09:55;;;;;;;3.60;2.30;;;9.60;99.90;;;;;;5093835;28;20126;-82
2021/12/01 07:12:22;;;;;;;4.85;2.17;;;9.70;99.90;;;;;;5093841;28;20051;-81
2021/12/01 07:14:48;;;;;;;4.68;2.10;;;9.60;99.90;;;;;;5076949;28;20052;-81
2021/12/01 07:17:14;;;;;;;3.60;2.05;;;9.70;99.90;;;;;;5059898;28;20079;-82
2021/12/01 07:19:40;;;;;;;3.67;2.13;;;9.60;99.90;;;;;;5093774;28;20044;-82
2021/12/01 07:22:05;;;;;;;5.28;2.55;;;9.60;99.90;;;;;;5076663;28;20043;-82
2021/12/01 07:24:31;;;;;;;3.85;2.28;;;9.60;99.90;;;;;;5060148;28;20040;-81
2021/12/01 07:26:57;;;;;;;4.53;2.30;;;9.50;99.90;;;;;;5093725;28;20097;-82
2021/12/01 07:29:24;;;;;;;4.82;2.80;;;9.50;99.90;;;;;;5093352;28;20457;-82
2021/12/01 07:31:50;;;;;;;6.05;2.88;;;9.60;99.90;;;;;;5043640;28;20372;-81
2021/12/01 07:34:16;;;;;;;4.13;2.33;;;9.70;99.90;;;;;;5076111;28;20054;-81
2021/12/01 07:36:41;;;;;;;5.80;2.88;;;9.50;99.90;;;;;;5076654;28;20084;-82
2021/12/01 07:39:07;;;;;;;5.55;2.75;;;9.60;99.90;;;;;;5093394;28;20044;-82
2021/12/01 07:41:33;;;;;;;4.22;2.65;;;9.60;99.90;;;;;;5076572;28;20044;-82
2021/12/01 07:43:59;;;;;;;6.38;3.05;;;9.60;99.90;;;;;;5093278;28;20047;-82
2021/12/01 07:46:24;;;;;;;5.22;3.10;;;9.70;99.90;;;;;;5076267;28;20462;-82
2021/12/01 07:48:50;;;;;;;5.97;3.80;;;9.70;99.90;;;;;;5093070;28;20044;-81
2021/12/01 07:51:16;;;;;;;9.30;3.63;;;9.70;99.90;;;;;;5076233;28;20048;-81
2021/12/01 07:53:42;;;;;;;9.90;4.20;;;9.70;99.90;;;;;;5075745;28;20048;-81
2021/12/01 07:56:08;;;;;;;8.30;4.70;;;9.70;99.90;;;;;;5093059;28;20090;-82
2021/12/01 07:58:34;;;;;;;9.65;4.22;;;9.70;99.90;;;;;;5092928;28;20047;-82
2021/12/01 08:01:00;;;;;;;6.72;4.45;;;9.60;99.90;;;;;;5076200;28;20036;-82
2021/12/01 08:03:25;;;;;;;6.93;4.63;;;9.70;99.90;;;;;;5075836;28;20044;-82
2021/12/01 08:05:51;;;;;;;8.32;4.53;;;9.70;99.90;;;;;;5092452;28;20055;-82
2021/12/01 08:08:17;;;;;;;8.18;4.30;;;9.70;99.90;;;;;;5075748;28;20403;-82
2021/12/01 08:10:45;;;;;;;8.65;4.45;;;9.70;99.90;;;;;;5075977;28;20040;-71
2021/12/01 08:13:11;;;;;;;8.63;4.43;;;9.80;99.90;;;;;;5093742;28;20058;-71
2021/12/01 08:15:36;;;;;;;6.95;4.15;;;9.70;99.90;;;;;;5092631;28;20126;-71
2021/12/01 08:18:02;;;;;;;9.55;5.03;;;9.70;99.90;;;;;;5092894;28;20048;-74
2021/12/01 08:20:28;;;;;;;9.27;3.97;;;9.70;99.90;;;;;;5042581;28;20044;-74
2021/12/01 08:22:54;;;;;;;12.77;5.80;;;9.70;99.90;;;;;;5075907;28;20093;-74
2021/12/01 08:25:23;;;;;;;10.10;5.63;;;9.80;99.90;;;;;;5092551;28;20056;-74
2021/12/01 08:27:49;;;;;;;9.55;5.10;;;9.80;99.90;;;;;;5076008;28;20090;-73
2021/12/01 08:30:15;;;;;;;13.95;6.50;;;9.80;99.90;;;;;;5092505;28;20079;-74
2021/12/01 08:32:45;;;;;;;12.75;6.47;;;9.70;99.90;;;;;;5094937;28;20048;-76
2021/12/01 08:35:15;;;;;;;11.77;5.07;;;9.80;99.90;;;;;;5098671;28;20047;-76
2021/12/01 08:37:40;;;;;;;12.95;5.55;;;9.80;99.90;;;;;;5092446;28;20527;-74
2021/12/01 08:40:07;;;;;;;8.45;4.57;;;9.80;99.90;;;;;;5075930;28;20063;-73
2021/12/01 08:42:33;;;;;;;13.73;6.05;;;9.70;99.90;;;;;;5092289;28;20047;-74
2021/12/01 08:45:00;;;;;;;7.43;4.88;;;9.80;99.90;;;;;;5092973;28;20052;-73
2021/12/01 08:47:26;;;;;;;9.25;4.57;;;9.80;99.90;;;;;;5092151;28;20462;-74
2021/12/01 08:49:52;;;;;;;9.75;3.83;;;9.70;99.90;;;;;;5092126;28;20127;-74
2021/12/01 08:52:19;;;;;;;11.27;4.00;;;9.70;99.90;;;;;;5092423;28;20538;-73
2021/12/01 08:54:45;;;;;;;11.43;2.88;;;9.60;99.90;;;;;;5092166;28;20170;-74
2021/12/01 08:57:10;;;;;;;15.68;2.72;;;9.60;99.90;;;;;;5092499;28;20435;-73
2021/12/01 08:59:37;;;;;;;12.48;2.53;;;9.60;99.90;;;;;;5092246;28;20135;-73
2021/12/01 09:02:03;;;;;;;12.02;2.10;;;9.50;99.90;;;;;;5075439;28;20060;-73
2021/12/01 09:04:29;;;;;;;15.93;2.42;;;9.50;99.90;;;;;;5095347;28;20067;-73
2021/12/01 09:06:55;;;;;;;8.27;1.52;;;9.50;99.90;;;;;;5096744;28;20391;-72
2021/12/01 09:09:21;;;;;;;14.57;2.03;;;9.50;99.90;;;;;;5096112;28;20052;-72
2021/12/01 09:11:50;;;;;;;11.88;1.63;;;9.50;99.90;;;;;;5096224;28;20512;-72
2021/12/01 09:14:16;;;;;;;23.02;2.50;;;9.50;99.90;;;;;;5096133;28;20119;-74
2021/12/01 09:16:44;;;;;;;16.52;2.08;;;9.40;99.90;;;;;;5098570;28;20048;-73
2021/12/01 09:19:09;;;;;;;14.63;1.50;;;9.50;99.90;;;;;;5097010;28;20127;-74
2021/12/01 09:21:36;;;;;;;8.50;1.60;;;9.40;99.90;;;;;;5095995;28;20460;-73
2021/12/01 09:24:03;;;;;;;15.70;2.03;;;9.40;99.90;;;;;;5095932;28;20048;-74
2021/12/01 09:26:29;;;;;;;15.35;1.63;;;9.40;99.90;;;;;;5079155;28;20044;-74
2021/12/01 09:28:55;;;;;;;12.93;1.67;;;9.50;99.90;;;;;;5096830;28;20043;-74
2021/12/01 09:31:20;;;;;;;11.45;1.73;;;9.50;99.90;;;;;;5095507;28;20051;-74
2021/12/01 09:33:47;;;;;;;18.40;1.60;;;9.40;99.90;;;;;;5078175;28;20040;-75
2021/12/01 09:36:13;;;;;;;18.30;2.03;;;9.30;99.90;;;;;;5095698;28;20399;-74
2021/12/01 09:38:39;;;;;;;11.63;1.38;;;9.40;99.90;;;;;;5095665;28;20048;-74
2021/12/01 09:41:05;;;;;;;10.02;1.67;;;9.40;99.90;;;;;;5078714;28;20044;-73
2021/12/01 09:43:31;;;;;;;5.90;1.10;;;9.30;99.90;;;;;;5097122;28;20056;-74
2021/12/01 09:46:00;;;;;;;9.02;1.23;;;9.20;99.90;;;;;;5095307;28;20086;-74
2021/12/01 09:48:27;;;;;;;11.32;1.38;;;9.30;99.90;;;;;;5090371;28;20402;-74
2021/12/01 09:50:54;;;;;;;8.82;1.15;;;9.30;99.90;;;;;;5078485;28;20048;-73
2021/12/01 09:53:20;;;;;;;11.68;1.23;;;9.20;99.90;;;;;;5086404;28;20056;-75
2021/12/01 09:55:46;;;;;;;10.60;1.50;;;9.20;99.90;;;;;;5075160;28;20086;-74
2021/12/01 09:58:16;;;;;;;11.48;1.02;;;9.30;99.90;;;;;;5074640;28;20099;-74
2021/12/01 10:00:48;;;;;;;8.52;1.20;;;9.20;99.90;;;;;;5108618;28;20548;-74
2021/12/01 10:03:14;;;;;;;12.10;1.25;;;9.20;99.90;;;;;;5074460;28;20049;-74
2021/12/01 10:06:04;;;;;;;18.92;1.60;;;9.20;99.90;;;;;;5074430;28;20063;-74
2021/12/01 10:08:34;;;;;;;10.05;1.38;;;9.30;99.90;;;;;;5108606;28;20468;-74
2021/12/01 10:11:13;;;;;;;12.65;1.10;;;9.30;99.90;;;;;;5075415;28;20094;-74
2021/12/01 10:13:45;;;;;;;17.05;2.53;;;9.30;99.90;;;;;;5108326;28;20052;-74
2021/12/01 10:16:14;;;;;;;11.90;1.55;;;9.40;99.90;;;;;;5108452;28;20093;-74
2021/12/01 10:18:48;;;;;;;17.02;1.77;;;9.40;99.90;;;;;;5108156;28;20044;-74
2021/12/01 10:21:19;;;;;;;13.05;1.30;;;9.40;99.90;;;;;;5076068;28;20048;-74
2021/12/01 10:23:52;;;;;;;18.83;1.88;;;9.40;99.90;;;;;;5074039;28;20053;-73
2021/12/01 10:26:29;;;;;;;15.95;2.03;;;9.40;99.90;;;;;;5074331;28;20089;-72
2021/12/01 10:28:57;;;;;;;17.50;2.67;;;9.40;99.90;;;;;;5057994;28;20052;-72
2021/12/01 10:31:51;;;;;;;16.35;2.10;;;9.30;99.90;;;;;;5074261;28;20048;-74
2021/12/01 10:34:26;;;;;;;21.60;2.10;;;9.30;99.90;;;;;;5073610;28;20045;-75
2021/12/01 10:37:31;;;;;;;16.35;1.73;;;9.30;99.90;;;;;;5074006;28;20048;-71
2021/12/01 10:40:23;;;;;;;13.27;2.05;;;9.20;99.90;;;;;;5072616;28;20135;-73
2021/12/01 10:42:57;;;;;;;16.98;2.17;;;9.20;99.90;;;;;;5073227;28;20364;-74
2021/12/01 10:45:26;;;;;;;19.67;2.00;;;9.30;99.90;;;;;;5077253;28;20059;-74
2021/12/01 10:47:52;;;;;;;12.18;1.38;;;9.30;99.90;;;;;;5094154;28;20048;-73
2021/12/01 10:50:21;;;;;;;12.27;1.27;;;9.30;99.90;;;;;;5093687;28;20048;-73
2021/12/01 10:52:49;;;;;;;15.85;1.42;;;9.30;99.90;;;;;;5093872;28;20483;-73
2021/12/01 10:55:19;;;;;;;14.70;2.05;;;9.30;99.90;;;;;;5092607;28;20510;-73
2021/12/01 10:57:48;;;;;;;15.15;1.60;;;9.20;99.90;;;;;;5095410;28;20048;-73
2021/12/01 11:00:18;;;;;;;17.98;2.00;;;9.20;99.90;;;;;;5093836;28;20052;-73
2021/12/01 11:02:44;;;;;;;12.57;1.63;;;9.20;99.90;;;;;;5094029;28;20048;-73
2021/12/01 11:05:09;;;;;;;11.60;1.33;;;9.20;99.90;;;;;;5079660;28;20084;-73
2021/12/01 11:07:36;;;;;;;12.60;1.80;;;9.20;99.90;;;;;;5088969;28;20052;-73
2021/12/01 11:10:19;;;;;;;8.35;1.50;;;9.20;99.90;;;;;;5094055;28;20059;-73
2021/12/01 11:13:06;;;;;;;9.38;1.35;;;9.20;99.90;;;;;;5087222;28;20041;-73
2021/12/01 11:15:41;;;;;;;17.23;2.25;;;9.20;99.90;;;;;;5072830;28;20496;-74
2021/12/01 11:18:08;;;;;;;16.40;1.83;;;9.30;99.90;;;;;;5074862;28;20159;-74
2021/12/01 11:20:47;;;;;;;20.33;2.25;;;9.30;99.90;;;;;;5073089;28;20043;-75
2021/12/01 11:23:23;;;;;;;16.05;1.80;;;9.30;99.90;;;;;;5093118;28;20032;-74
2021/12/01 11:26:04;;;;;;;14.52;2.30;;;9.30;99.90;;;;;;5090698;28;20568;-73
2021/12/01 11:28:32;;;;;;;19.20;1.98;;;9.20;99.90;;;;;;5077285;28;20063;-73
2021/12/01 11:31:01;;;;;;;10.05;1.70;;;9.20;99.90;;;;;;5073245;28;20059;-73
2021/12/01 11:33:29;;;;;;;21.70;2.55;;;9.30;99.90;;;;;;5072545;28;20045;-73
2021/12/01 11:36:01;;;;;;;15.73;1.90;;;9.30;99.90;;;;;;5073897;28;20458;-74
2021/12/01 11:38:27;;;;;;;19.98;2.17;;;9.30;99.90;;;;;;5086975;28;20168;-72
2021/12/01 11:40:53;;;;;;;18.27;2.40;;;9.30;99.90;;;;;;5093241;28;20517;-75
2021/12/01 11:43:24;;;;;;;20.20;2.42;;;9.30;99.90;;;;;;5062942;28;20067;-73
2021/12/01 11:45:50;;;;;;;24.45;3.35;;;9.30;99.90;;;;;;5096196;28;20052;-72
2021/12/01 11:48:21;;;;;;;20.10;2.22;;;9.30;99.90;;;;;;5076540;28;20048;-72
2021/12/01 11:50:59;;;;;;;22.65;4.03;;;9.30;99.90;;;;;;5093181;28;20081;-74
2021/12/01 11:53:33;;;;;;;24.48;3.20;;;9.20;99.90;;;;;;5081081;28;20119;-74
2021/12/01 11:56:14;;;;;;;22.95;3.35;;;9.20;99.90;;;;;;5057336;28;20056;-74
2021/12/01 11:58:49;;;;;;;28.75;3.63;;;9.10;99.70;;;;;;5072721;28;20078;-74
2021/12/01 12:01:20;;;;;;;32.22;3.40;;;9.10;99.80;;;;;;5072911;28;20109;-74
2021/12/01 12:04:06;;;;;;;18.35;3.13;;;8.90;99.20;;;;;;5071725;28;20055;-73
2021/12/01 12:06:34;;;;;;;21.23;3.27;;;8.90;99.10;;;;;;5041222;28;20052;-74
2021/12/01 12:09:01;;;;;;;26.85;3.83;;;8.90;98.80;;;;;;5072403;28;20099;-73
2021/12/01 12:11:38;;;;;;;25.65;3.22;;;8.80;98.60;;;;;;5055551;28;20044;-74
2021/12/01 12:14:14;;;;;;;26.55;2.75;;;8.80;98.60;;;;;;5072643;28;20045;-73
2021/12/01 12:16:42;;;;;;;22.65;2.58;;;8.70;98.60;;;;;;5055381;28;20408;-73
2021/12/01 12:19:08;;;;;;;23.05;2.67;;;8.70;98.60;;;;;;5072287;28;20045;-74
2021/12/01 12:24:09;;;;;;;19.23;2.78;;;8.80;98.60;;;;;;5072450;28;20060;-74
2021/12/01 12:26:40;;;;;;;25.20;3.03;;;8.80;98.60;;;;;;5072463;28;20048;-74
2021/12/01 12:29:23;;;;;;;21.83;3.13;;;8.80;98.60;;;;;;5071892;28;20529;-74
2021/12/01 12:31:51;;;;;;;18.50;2.45;;;8.80;98.60;;;;;;5073262;28;20452;-74
2021/12/01 12:34:20;;;;;;;19.63;2.15;;;8.80;98.60;;;;;;5071482;28;20047;-73
2021/12/01 12:36:47;;;;;;;28.80;2.80;;;8.90;98.50;;;;;;5072194;28;20052;-73
2021/12/01 12:39:18;;;;;;;18.30;2.22;;;9.00;98.60;;;;;;5075890;28;20510;-74
2021/12/01 12:42:10;;;;;;;16.42;2.80;;;8.90;98.60;;;;;;5076219;28;20044;-73
2021/12/01 12:44:45;;;;;;;17.27;2.28;;;8.90;98.50;;;;;;5074612;28;20064;-74
2021/12/01 12:47:19;;;;;;;17.23;1.92;;;8.90;98.90;;;;;;5076384;28;20446;-74
2021/12/01 12:49:53;;;;;;;18.85;2.17;;;8.90;99.20;;;;;;5075864;28;20123;-74
2021/12/01 12:52:25;;;;;;;12.40;1.88;;;8.80;99.00;;;;;;5076163;28;20083;-73
2021/12/01 12:54:59;;;;;;;12.57;1.70;;;8.70;99.40;;;;;;5075702;28;20110;-74
2021/12/01 12:57:53;;;;;;;17.20;2.00;;;8.60;99.90;;;;;;5077079;28;20055;-74